sensor_id;sensor_type;location;lat;lon;timestamp;P1;durP1;ratioP1;P2;durP2;ratioP2
7108;SDS011;29079;41.930;25.558;2023-12-07T00:01:36;65.93;;;30.23;;
7108;SDS011;29079;41.930;25.558;2023-12-07T00:04:24;76.47;;;32.58;;
7108;SDS011;29079;41.930;25.558;2023-12-07T00:07:12;67.22;;;31.52;;
7108;SDS011;29079;41.930;25.558;2023-12-07T00:10:02;72.10;;;32.55;;
7108;SDS011;29079;41.930;25.558;2023-12-07T00:12:51;68.63;;;34.17;;
7108;SDS011;29079;41.930;25.558;2023-12-07T00:15:39;74.22;;;31.73;;
7108;SDS011;29079;41.930;25.558;2023-12-07T00:18:28;70.32;;;32.35;;
7108;SDS011;29079;41.930;25.558;2023-12-07T00:21:16;70.10;;;33.33;;
7108;SDS011;29079;41.930;25.558;2023-12-07T00:24:04;74.15;;;31.38;;
7108;SDS011;29079;41.930;25.558;2023-12-07T00:26:54;69.00;;;30.85;;
7108;SDS011;29079;41.930;25.558;2023-12-07T00:29:42;70.60;;;32.35;;
7108;SDS011;29079;41.930;25.558;2023-12-07T00:32:30;70.00;;;33.17;;
7108;SDS011;29079;41.930;25.558;2023-12-07T00:35:18;60.72;;;30.90;;
7108;SDS011;29079;41.930;25.558;2023-12-07T00:38:08;74.03;;;33.45;;
7108;SDS011;29079;41.930;25.558;2023-12-07T00:40:57;68.78;;;33.17;;
7108;SDS011;29079;41.930;25.558;2023-12-07T00:43:46;70.85;;;31.73;;
7108;SDS011;29079;41.930;25.558;2023-12-07T00:46:34;70.72;;;31.02;;
7108;SDS011;29079;41.930;25.558;2023-12-07T00:49:23;65.03;;;31.20;;
7108;SDS011;29079;41.930;25.558;2023-12-07T00:52:11;69.70;;;32.42;;
7108;SDS011;29079;41.930;25.558;2023-12-07T00:54:59;62.10;;;32.75;;
7108;SDS011;29079;41.930;25.558;2023-12-07T00:57:57;67.47;;;32.08;;
7108;SDS011;29079;41.930;25.558;2023-12-07T01:00:47;67.95;;;31.50;;
7108;SDS011;29079;41.930;25.558;2023-12-07T01:03:35;60.55;;;29.70;;
7108;SDS011;29079;41.930;25.558;2023-12-07T01:06:26;72.22;;;31.80;;
7108;SDS011;29079;41.930;25.558;2023-12-07T01:09:15;58.03;;;28.13;;
7108;SDS011;29079;41.930;25.558;2023-12-07T01:12:03;60.88;;;28.95;;
7108;SDS011;29079;41.930;25.558;2023-12-07T01:14:51;64.43;;;28.85;;
7108;SDS011;29079;41.930;25.558;2023-12-07T01:17:40;54.90;;;28.02;;
7108;SDS011;29079;41.930;25.558;2023-12-07T01:20:28;57.08;;;27.45;;
7108;SDS011;29079;41.930;25.558;2023-12-07T01:23:16;57.05;;;27.42;;
7108;SDS011;29079;41.930;25.558;2023-12-07T01:26:04;56.53;;;27.17;;
7108;SDS011;29079;41.930;25.558;2023-12-07T01:28:53;65.00;;;30.15;;
7108;SDS011;29079;41.930;25.558;2023-12-07T01:31:41;66.60;;;30.50;;
7108;SDS011;29079;41.930;25.558;2023-12-07T01:34:30;64.32;;;28.58;;
7108;SDS011;29079;41.930;25.558;2023-12-07T01:37:19;58.53;;;29.20;;
7108;SDS011;29079;41.930;25.558;2023-12-07T01:40:07;68.00;;;31.50;;
7108;SDS011;29079;41.930;25.558;2023-12-07T01:42:57;61.38;;;29.58;;
7108;SDS011;29079;41.930;25.558;2023-12-07T01:45:46;54.25;;;28.17;;
7108;SDS011;29079;41.930;25.558;2023-12-07T01:48:35;60.63;;;28.63;;
7108;SDS011;29079;41.930;25.558;2023-12-07T01:51:24;61.47;;;29.40;;
7108;SDS011;29079;41.930;25.558;2023-12-07T01:54:12;50.35;;;26.52;;
7108;SDS011;29079;41.930;25.558;2023-12-07T01:57:01;55.20;;;25.65;;
7108;SDS011;29079;41.930;25.558;2023-12-07T01:59:49;52.88;;;26.70;;
7108;SDS011;29079;41.930;25.558;2023-12-07T02:02:38;58.25;;;29.65;;
7108;SDS011;29079;41.930;25.558;2023-12-07T02:05:26;61.05;;;30.10;;
7108;SDS011;29079;41.930;25.558;2023-12-07T02:08:16;58.30;;;30.08;;
7108;SDS011;29079;41.930;25.558;2023-12-07T02:11:04;59.35;;;31.38;;
7108;SDS011;29079;41.930;25.558;2023-12-07T02:13:52;58.78;;;30.35;;
7108;SDS011;29079;41.930;25.558;2023-12-07T02:16:45;56.67;;;29.63;;
7108;SDS011;29079;41.930;25.558;2023-12-07T02:19:49;53.22;;;29.02;;
7108;SDS011;29079;41.930;25.558;2023-12-07T02:22:46;52.30;;;29.35;;
7108;SDS011;29079;41.930;25.558;2023-12-07T02:25:40;46.60;;;25.83;;
7108;SDS011;29079;41.930;25.558;2023-12-07T02:29:10;52.13;;;26.90;;
7108;SDS011;29079;41.930;25.558;2023-12-07T02:50:34;40.20;;;20.50;;
7108;SDS011;29079;41.930;25.558;2023-12-07T02:53:22;38.70;;;20.20;;
7108;SDS011;29079;41.930;25.558;2023-12-07T02:56:10;35.55;;;20.50;;
7108;SDS011;29079;41.930;25.558;2023-12-07T02:58:58;40.05;;;20.67;;
7108;SDS011;29079;41.930;25.558;2023-12-07T03:01:46;38.25;;;20.23;;
7108;SDS011;29079;41.930;25.558;2023-12-07T03:04:34;39.53;;;21.75;;
7108;SDS011;29079;41.930;25.558;2023-12-07T03:07:24;37.75;;;20.15;;
7108;SDS011;29079;41.930;25.558;2023-12-07T03:10:12;41.88;;;22.70;;
7108;SDS011;29079;41.930;25.558;2023-12-07T03:13:00;43.67;;;22.15;;
7108;SDS011;29079;41.930;25.558;2023-12-07T03:15:48;37.53;;;20.77;;
7108;SDS011;29079;41.930;25.558;2023-12-07T03:18:37;37.10;;;21.38;;
7108;SDS011;29079;41.930;25.558;2023-12-07T03:21:25;33.30;;;19.38;;
7108;SDS011;29079;41.930;25.558;2023-12-07T03:24:14;34.15;;;18.73;;
7108;SDS011;29079;41.930;25.558;2023-12-07T03:27:02;38.00;;;19.88;;
7108;SDS011;29079;41.930;25.558;2023-12-07T03:29:51;36.92;;;19.50;;
7108;SDS011;29079;41.930;25.558;2023-12-07T03:32:39;31.73;;;18.02;;
7108;SDS011;29079;41.930;25.558;2023-12-07T03:35:28;31.85;;;18.13;;
7108;SDS011;29079;41.930;25.558;2023-12-07T03:38:16;32.47;;;19.15;;
7108;SDS011;29079;41.930;25.558;2023-12-07T03:41:05;36.60;;;18.45;;
7108;SDS011;29079;41.930;25.558;2023-12-07T03:43:53;39.80;;;20.13;;
7108;SDS011;29079;41.930;25.558;2023-12-07T03:46:41;41.38;;;21.15;;
7108;SDS011;29079;41.930;25.558;2023-12-07T03:49:30;36.65;;;22.23;;
7108;SDS011;29079;41.930;25.558;2023-12-07T03:52:18;44.78;;;24.77;;
7108;SDS011;29079;41.930;25.558;2023-12-07T03:55:06;43.90;;;25.25;;
7108;SDS011;29079;41.930;25.558;2023-12-07T03:57:58;46.10;;;27.88;;
7108;SDS011;29079;41.930;25.558;2023-12-07T04:00:46;61.92;;;31.83;;
7108;SDS011;29079;41.930;25.558;2023-12-07T04:03:34;63.45;;;34.42;;
7108;SDS011;29079;41.930;25.558;2023-12-07T04:06:22;69.80;;;37.88;;
7108;SDS011;29079;41.930;25.558;2023-12-07T04:09:11;85.45;;;44.45;;
7108;SDS011;29079;41.930;25.558;2023-12-07T04:11:59;93.22;;;46.70;;
7108;SDS011;29079;41.930;25.558;2023-12-07T04:14:49;95.38;;;50.38;;
7108;SDS011;29079;41.930;25.558;2023-12-07T04:17:37;108.70;;;55.45;;
7108;SDS011;29079;41.930;25.558;2023-12-07T04:20:25;98.20;;;54.17;;
7108;SDS011;29079;41.930;25.558;2023-12-07T04:23:15;102.80;;;52.50;;
7108;SDS011;29079;41.930;25.558;2023-12-07T04:26:03;114.85;;;59.20;;
7108;SDS011;29079;41.930;25.558;2023-12-07T04:28:52;128.45;;;66.78;;
7108;SDS011;29079;41.930;25.558;2023-12-07T04:31:41;122.38;;;62.97;;
7108;SDS011;29079;41.930;25.558;2023-12-07T04:34:30;124.03;;;64.65;;
7108;SDS011;29079;41.930;25.558;2023-12-07T04:37:18;123.65;;;67.57;;
7108;SDS011;29079;41.930;25.558;2023-12-07T04:40:07;105.90;;;57.95;;
7108;SDS011;29079;41.930;25.558;2023-12-07T04:42:57;92.22;;;48.92;;
7108;SDS011;29079;41.930;25.558;2023-12-07T04:45:45;92.97;;;49.92;;
7108;SDS011;29079;41.930;25.558;2023-12-07T04:48:35;98.40;;;49.85;;
7108;SDS011;29079;41.930;25.558;2023-12-07T04:51:23;75.65;;;39.95;;
7108;SDS011;29079;41.930;25.558;2023-12-07T04:54:11;80.70;;;39.08;;
7108;SDS011;29079;41.930;25.558;2023-12-07T04:59:53;93.63;;;45.85;;
7108;SDS011;29079;41.930;25.558;2023-12-07T05:02:42;100.50;;;48.95;;
7108;SDS011;29079;41.930;25.558;2023-12-07T05:05:31;95.97;;;46.00;;
7108;SDS011;29079;41.930;25.558;2023-12-07T05:08:19;86.13;;;45.20;;
7108;SDS011;29079;41.930;25.558;2023-12-07T05:11:07;88.20;;;44.55;;
7108;SDS011;29079;41.930;25.558;2023-12-07T05:13:55;91.35;;;45.42;;
7108;SDS011;29079;41.930;25.558;2023-12-07T05:16:44;86.13;;;45.33;;
7108;SDS011;29079;41.930;25.558;2023-12-07T05:19:34;94.20;;;50.95;;
7108;SDS011;29079;41.930;25.558;2023-12-07T05:22:24;109.35;;;55.17;;
7108;SDS011;29079;41.930;25.558;2023-12-07T05:25:12;111.85;;;58.88;;
7108;SDS011;29079;41.930;25.558;2023-12-07T05:28:00;124.13;;;60.03;;
7108;SDS011;29079;41.930;25.558;2023-12-07T05:30:49;105.00;;;56.97;;
7108;SDS011;29079;41.930;25.558;2023-12-07T05:33:38;99.72;;;52.17;;
7108;SDS011;29079;41.930;25.558;2023-12-07T05:36:27;83.38;;;46.35;;
7108;SDS011;29079;41.930;25.558;2023-12-07T05:39:16;89.97;;;45.85;;
7108;SDS011;29079;41.930;25.558;2023-12-07T05:42:05;95.05;;;47.13;;
7108;SDS011;29079;41.930;25.558;2023-12-07T05:44:53;97.63;;;49.15;;
7108;SDS011;29079;41.930;25.558;2023-12-07T05:47:42;83.20;;;44.10;;
7108;SDS011;29079;41.930;25.558;2023-12-07T05:50:30;82.90;;;42.00;;
7108;SDS011;29079;41.930;25.558;2023-12-07T05:53:18;73.22;;;38.22;;
7108;SDS011;29079;41.930;25.558;2023-12-07T05:56:08;78.07;;;39.78;;
7108;SDS011;29079;41.930;25.558;2023-12-07T05:58:56;79.45;;;43.20;;
7108;SDS011;29079;41.930;25.558;2023-12-07T06:01:44;73.82;;;39.42;;
7108;SDS011;29079;41.930;25.558;2023-12-07T06:04:32;66.25;;;36.45;;
7108;SDS011;29079;41.930;25.558;2023-12-07T06:07:20;70.75;;;36.58;;
7108;SDS011;29079;41.930;25.558;2023-12-07T06:10:09;84.45;;;44.95;;
7108;SDS011;29079;41.930;25.558;2023-12-07T06:12:58;99.05;;;48.00;;
7108;SDS011;29079;41.930;25.558;2023-12-07T06:15:47;88.43;;;42.53;;
7108;SDS011;29079;41.930;25.558;2023-12-07T06:18:36;80.30;;;40.85;;
7108;SDS011;29079;41.930;25.558;2023-12-07T06:21:24;80.55;;;41.58;;
7108;SDS011;29079;41.930;25.558;2023-12-07T06:24:14;78.22;;;41.58;;
7108;SDS011;29079;41.930;25.558;2023-12-07T06:27:02;74.70;;;37.03;;
7108;SDS011;29079;41.930;25.558;2023-12-07T06:29:52;77.38;;;40.75;;
7108;SDS011;29079;41.930;25.558;2023-12-07T06:32:40;73.25;;;39.33;;
7108;SDS011;29079;41.930;25.558;2023-12-07T06:35:28;97.22;;;46.15;;
7108;SDS011;29079;41.930;25.558;2023-12-07T06:38:16;79.55;;;42.05;;
7108;SDS011;29079;41.930;25.558;2023-12-07T06:41:08;73.38;;;37.58;;
7108;SDS011;29079;41.930;25.558;2023-12-07T06:43:56;108.45;;;44.60;;
7108;SDS011;29079;41.930;25.558;2023-12-07T06:46:46;86.75;;;38.13;;
7108;SDS011;29079;41.930;25.558;2023-12-07T06:49:35;95.63;;;42.10;;
7108;SDS011;29079;41.930;25.558;2023-12-07T06:52:37;78.03;;;36.63;;
7108;SDS011;29079;41.930;25.558;2023-12-07T06:55:25;63.45;;;29.75;;
7108;SDS011;29079;41.930;25.558;2023-12-07T06:58:13;83.72;;;39.13;;
7108;SDS011;29079;41.930;25.558;2023-12-07T07:01:02;81.65;;;37.75;;
7108;SDS011;29079;41.930;25.558;2023-12-07T07:03:51;72.63;;;38.83;;
7108;SDS011;29079;41.930;25.558;2023-12-07T07:06:40;94.72;;;46.45;;
7108;SDS011;29079;41.930;25.558;2023-12-07T07:09:29;82.43;;;40.22;;
7108;SDS011;29079;41.930;25.558;2023-12-07T07:12:17;75.10;;;37.75;;
7108;SDS011;29079;41.930;25.558;2023-12-07T07:15:07;81.18;;;41.33;;
7108;SDS011;29079;41.930;25.558;2023-12-07T07:17:55;67.05;;;35.40;;
7108;SDS011;29079;41.930;25.558;2023-12-07T07:20:45;72.95;;;34.40;;
7108;SDS011;29079;41.930;25.558;2023-12-07T07:23:34;67.07;;;31.55;;
7108;SDS011;29079;41.930;25.558;2023-12-07T07:26:23;66.43;;;33.92;;
7108;SDS011;29079;41.930;25.558;2023-12-07T07:29:11;51.05;;;27.20;;
7108;SDS011;29079;41.930;25.558;2023-12-07T07:31:59;100.35;;;42.42;;
7108;SDS011;29079;41.930;25.558;2023-12-07T07:34:47;63.42;;;32.72;;
7108;SDS011;29079;41.930;25.558;2023-12-07T07:37:36;60.83;;;30.73;;
7108;SDS011;29079;41.930;25.558;2023-12-07T07:40:25;55.55;;;30.27;;
7108;SDS011;29079;41.930;25.558;2023-12-07T07:43:13;55.33;;;32.88;;
7108;SDS011;29079;41.930;25.558;2023-12-07T07:46:01;57.60;;;32.13;;
7108;SDS011;29079;41.930;25.558;2023-12-07T07:48:50;65.40;;;34.17;;
7108;SDS011;29079;41.930;25.558;2023-12-07T07:51:38;56.72;;;32.05;;
7108;SDS011;29079;41.930;25.558;2023-12-07T07:54:28;50.17;;;28.92;;
7108;SDS011;29079;41.930;25.558;2023-12-07T07:57:16;46.20;;;27.42;;
7108;SDS011;29079;41.930;25.558;2023-12-07T08:00:04;51.47;;;26.50;;
7108;SDS011;29079;41.930;25.558;2023-12-07T08:02:55;53.63;;;28.80;;
7108;SDS011;29079;41.930;25.558;2023-12-07T08:05:44;65.82;;;34.03;;
7108;SDS011;29079;41.930;25.558;2023-12-07T08:08:32;69.32;;;33.10;;
7108;SDS011;29079;41.930;25.558;2023-12-07T08:11:21;53.70;;;29.30;;
7108;SDS011;29079;41.930;25.558;2023-12-07T08:14:09;51.17;;;27.75;;
7108;SDS011;29079;41.930;25.558;2023-12-07T08:16:57;56.35;;;26.90;;
7108;SDS011;29079;41.930;25.558;2023-12-07T08:19:45;96.97;;;41.35;;
7108;SDS011;29079;41.930;25.558;2023-12-07T08:22:33;83.68;;;36.65;;
7108;SDS011;29079;41.930;25.558;2023-12-07T08:25:22;70.70;;;34.92;;
7108;SDS011;29079;41.930;25.558;2023-12-07T08:28:11;50.97;;;28.15;;
7108;SDS011;29079;41.930;25.558;2023-12-07T08:31:00;56.40;;;31.83;;
7108;SDS011;29079;41.930;25.558;2023-12-07T08:33:48;55.45;;;29.23;;
7108;SDS011;29079;41.930;25.558;2023-12-07T08:36:36;54.85;;;29.20;;
7108;SDS011;29079;41.930;25.558;2023-12-07T08:39:24;67.50;;;33.80;;
7108;SDS011;29079;41.930;25.558;2023-12-07T08:42:12;67.65;;;34.78;;
7108;SDS011;29079;41.930;25.558;2023-12-07T08:45:02;69.78;;;36.25;;
7108;SDS011;29079;41.930;25.558;2023-12-07T08:47:50;52.28;;;29.52;;
7108;SDS011;29079;41.930;25.558;2023-12-07T08:50:40;60.83;;;28.20;;
7108;SDS011;29079;41.930;25.558;2023-12-07T08:53:28;58.15;;;28.50;;
7108;SDS011;29079;41.930;25.558;2023-12-07T08:56:16;56.53;;;31.35;;
7108;SDS011;29079;41.930;25.558;2023-12-07T08:59:05;59.72;;;30.67;;
7108;SDS011;29079;41.930;25.558;2023-12-07T09:01:54;50.20;;;26.33;;
7108;SDS011;29079;41.930;25.558;2023-12-07T09:04:42;38.60;;;21.15;;
7108;SDS011;29079;41.930;25.558;2023-12-07T09:07:30;34.05;;;21.17;;
7108;SDS011;29079;41.930;25.558;2023-12-07T09:10:18;37.30;;;21.27;;
7108;SDS011;29079;41.930;25.558;2023-12-07T09:13:07;38.03;;;20.17;;
7108;SDS011;29079;41.930;25.558;2023-12-07T09:15:54;46.17;;;24.17;;
7108;SDS011;29079;41.930;25.558;2023-12-07T09:18:44;74.60;;;26.83;;
7108;SDS011;29079;41.930;25.558;2023-12-07T09:21:32;54.65;;;26.23;;
7108;SDS011;29079;41.930;25.558;2023-12-07T09:24:20;53.55;;;26.67;;
7108;SDS011;29079;41.930;25.558;2023-12-07T09:27:08;47.38;;;24.20;;
7108;SDS011;29079;41.930;25.558;2023-12-07T09:29:58;40.80;;;22.40;;
7108;SDS011;29079;41.930;25.558;2023-12-07T09:32:46;39.25;;;22.58;;
7108;SDS011;29079;41.930;25.558;2023-12-07T09:35:35;38.75;;;21.27;;
7108;SDS011;29079;41.930;25.558;2023-12-07T09:38:23;44.65;;;23.40;;
7108;SDS011;29079;41.930;25.558;2023-12-07T09:41:11;34.28;;;18.88;;
7108;SDS011;29079;41.930;25.558;2023-12-07T09:44:00;35.58;;;20.20;;
7108;SDS011;29079;41.930;25.558;2023-12-07T09:46:49;34.08;;;19.23;;
7108;SDS011;29079;41.930;25.558;2023-12-07T09:49:37;43.67;;;20.42;;
7108;SDS011;29079;41.930;25.558;2023-12-07T09:52:29;47.95;;;23.60;;
7108;SDS011;29079;41.930;25.558;2023-12-07T09:55:17;42.75;;;21.20;;
7108;SDS011;29079;41.930;25.558;2023-12-07T09:58:06;43.85;;;20.65;;
7108;SDS011;29079;41.930;25.558;2023-12-07T10:00:55;26.15;;;14.35;;
7108;SDS011;29079;41.930;25.558;2023-12-07T10:03:43;37.45;;;17.50;;
7108;SDS011;29079;41.930;25.558;2023-12-07T10:06:38;24.77;;;12.98;;
7108;SDS011;29079;41.930;25.558;2023-12-07T10:09:32;12.10;;;8.07;;
7108;SDS011;29079;41.930;25.558;2023-12-07T10:12:19;24.83;;;13.75;;
7108;SDS011;29079;41.930;25.558;2023-12-07T10:15:11;20.65;;;10.02;;
7108;SDS011;29079;41.930;25.558;2023-12-07T10:18:00;93.13;;;38.83;;
7108;SDS011;29079;41.930;25.558;2023-12-07T10:20:48;48.72;;;23.10;;
7108;SDS011;29079;41.930;25.558;2023-12-07T10:23:36;33.67;;;15.95;;
7108;SDS011;29079;41.930;25.558;2023-12-07T10:26:26;19.45;;;10.93;;
7108;SDS011;29079;41.930;25.558;2023-12-07T10:29:14;17.10;;;9.75;;
7108;SDS011;29079;41.930;25.558;2023-12-07T10:32:17;19.40;;;9.75;;
7108;SDS011;29079;41.930;25.558;2023-12-07T10:35:08;19.00;;;11.60;;
7108;SDS011;29079;41.930;25.558;2023-12-07T10:37:56;22.70;;;11.88;;
7108;SDS011;29079;41.930;25.558;2023-12-07T10:40:45;23.98;;;13.07;;
7108;SDS011;29079;41.930;25.558;2023-12-07T10:43:37;21.92;;;11.82;;
7108;SDS011;29079;41.930;25.558;2023-12-07T10:49:20;21.58;;;10.52;;
7108;SDS011;29079;41.930;25.558;2023-12-07T10:52:20;21.05;;;11.75;;
7108;SDS011;29079;41.930;25.558;2023-12-07T10:55:13;18.50;;;10.45;;
7108;SDS011;29079;41.930;25.558;2023-12-07T10:58:04;23.88;;;12.77;;
7108;SDS011;29079;41.930;25.558;2023-12-07T11:00:54;25.15;;;12.90;;
7108;SDS011;29079;41.930;25.558;2023-12-07T11:03:44;22.70;;;11.23;;
7108;SDS011;29079;41.930;25.558;2023-12-07T11:06:34;23.33;;;11.07;;
7108;SDS011;29079;41.930;25.558;2023-12-07T11:09:24;24.10;;;12.23;;
7108;SDS011;29079;41.930;25.558;2023-12-07T11:12:20;22.75;;;11.63;;
7108;SDS011;29079;41.930;25.558;2023-12-07T11:15:16;21.15;;;12.73;;
7108;SDS011;29079;41.930;25.558;2023-12-07T11:18:07;31.30;;;15.38;;
7108;SDS011;29079;41.930;25.558;2023-12-07T11:20:55;25.65;;;12.93;;
7108;SDS011;29079;41.930;25.558;2023-12-07T11:23:44;21.77;;;13.05;;
7108;SDS011;29079;41.930;25.558;2023-12-07T11:26:32;21.42;;;12.35;;
7108;SDS011;29079;41.930;25.558;2023-12-07T11:29:20;27.48;;;15.43;;
7108;SDS011;29079;41.930;25.558;2023-12-07T11:32:14;27.70;;;12.70;;
7108;SDS011;29079;41.930;25.558;2023-12-07T11:35:15;25.02;;;13.70;;
7108;SDS011;29079;41.930;25.558;2023-12-07T11:38:03;29.58;;;14.65;;
7108;SDS011;29079;41.930;25.558;2023-12-07T11:40:53;27.60;;;12.82;;
7108;SDS011;29079;41.930;25.558;2023-12-07T11:43:44;25.55;;;12.43;;
7108;SDS011;29079;41.930;25.558;2023-12-07T11:46:33;30.33;;;14.60;;
7108;SDS011;29079;41.930;25.558;2023-12-07T11:49:21;32.50;;;15.05;;
7108;SDS011;29079;41.930;25.558;2023-12-07T11:52:22;38.40;;;19.25;;
7108;SDS011;29079;41.930;25.558;2023-12-07T11:55:10;32.22;;;18.20;;
7108;SDS011;29079;41.930;25.558;2023-12-07T11:57:59;42.33;;;21.67;;
7108;SDS011;29079;41.930;25.558;2023-12-07T12:00:50;48.60;;;21.92;;
7108;SDS011;29079;41.930;25.558;2023-12-07T12:03:39;39.72;;;20.20;;
7108;SDS011;29079;41.930;25.558;2023-12-07T12:06:27;43.45;;;20.15;;
7108;SDS011;29079;41.930;25.558;2023-12-07T12:09:20;46.63;;;21.52;;
7108;SDS011;29079;41.930;25.558;2023-12-07T12:12:17;65.20;;;28.25;;
7108;SDS011;29079;41.930;25.558;2023-12-07T12:15:05;61.20;;;26.15;;
7108;SDS011;29079;41.930;25.558;2023-12-07T12:17:55;74.55;;;28.92;;
7108;SDS011;29079;41.930;25.558;2023-12-07T12:20:44;74.70;;;29.75;;
7108;SDS011;29079;41.930;25.558;2023-12-07T12:23:33;85.75;;;29.40;;
7108;SDS011;29079;41.930;25.558;2023-12-07T12:26:22;63.25;;;26.90;;
7108;SDS011;29079;41.930;25.558;2023-12-07T12:29:11;49.95;;;25.20;;
7108;SDS011;29079;41.930;25.558;2023-12-07T12:32:13;66.53;;;26.58;;
7108;SDS011;29079;41.930;25.558;2023-12-07T12:35:01;45.97;;;21.55;;
7108;SDS011;29079;41.930;25.558;2023-12-07T12:37:51;57.40;;;27.00;;
7108;SDS011;29079;41.930;25.558;2023-12-07T12:40:41;57.60;;;25.45;;
7108;SDS011;29079;41.930;25.558;2023-12-07T12:43:32;56.92;;;26.08;;
7108;SDS011;29079;41.930;25.558;2023-12-07T12:46:20;60.92;;;26.35;;
7108;SDS011;29079;41.930;25.558;2023-12-07T12:49:09;68.75;;;26.50;;
7108;SDS011;29079;41.930;25.558;2023-12-07T12:51:57;89.53;;;35.35;;
7108;SDS011;29079;41.930;25.558;2023-12-07T12:54:46;74.10;;;30.35;;
7108;SDS011;29079;41.930;25.558;2023-12-07T12:57:36;93.28;;;37.95;;
7108;SDS011;29079;41.930;25.558;2023-12-07T13:00:26;111.55;;;41.38;;
7108;SDS011;29079;41.930;25.558;2023-12-07T13:03:14;99.75;;;39.42;;
7108;SDS011;29079;41.930;25.558;2023-12-07T13:06:03;95.03;;;38.90;;
7108;SDS011;29079;41.930;25.558;2023-12-07T13:08:51;87.57;;;37.55;;
7108;SDS011;29079;41.930;25.558;2023-12-07T13:11:39;103.97;;;42.55;;
7108;SDS011;29079;41.930;25.558;2023-12-07T13:14:28;104.13;;;40.08;;
7108;SDS011;29079;41.930;25.558;2023-12-07T13:17:19;100.75;;;38.78;;
7108;SDS011;29079;41.930;25.558;2023-12-07T13:20:08;86.50;;;34.28;;
7108;SDS011;29079;41.930;25.558;2023-12-07T13:22:58;87.45;;;37.35;;
7108;SDS011;29079;41.930;25.558;2023-12-07T13:25:46;61.13;;;27.95;;
7108;SDS011;29079;41.930;25.558;2023-12-07T13:28:34;60.90;;;29.45;;
7108;SDS011;29079;41.930;25.558;2023-12-07T13:31:23;66.80;;;32.15;;
7108;SDS011;29079;41.930;25.558;2023-12-07T13:34:13;76.63;;;37.58;;
7108;SDS011;29079;41.930;25.558;2023-12-07T13:37:09;43.92;;;22.38;;
7108;SDS011;29079;41.930;25.558;2023-12-07T13:39:57;42.33;;;22.75;;
7108;SDS011;29079;41.930;25.558;2023-12-07T13:42:46;32.08;;;18.58;;
7108;SDS011;29079;41.930;25.558;2023-12-07T13:45:34;40.45;;;20.33;;
7108;SDS011;29079;41.930;25.558;2023-12-07T13:48:23;34.08;;;20.17;;
7108;SDS011;29079;41.930;25.558;2023-12-07T13:51:12;32.13;;;17.48;;
7108;SDS011;29079;41.930;25.558;2023-12-07T13:54:00;45.47;;;23.63;;
7108;SDS011;29079;41.930;25.558;2023-12-07T13:56:49;43.45;;;22.35;;
7108;SDS011;29079;41.930;25.558;2023-12-07T13:59:39;36.50;;;18.17;;
7108;SDS011;29079;41.930;25.558;2023-12-07T14:02:27;34.92;;;18.05;;
7108;SDS011;29079;41.930;25.558;2023-12-07T14:05:15;38.50;;;22.13;;
7108;SDS011;29079;41.930;25.558;2023-12-07T14:08:09;56.30;;;28.48;;
7108;SDS011;29079;41.930;25.558;2023-12-07T14:10:57;35.70;;;18.75;;
7108;SDS011;29079;41.930;25.558;2023-12-07T14:13:45;42.92;;;21.02;;
7108;SDS011;29079;41.930;25.558;2023-12-07T14:16:35;32.03;;;18.33;;
7108;SDS011;29079;41.930;25.558;2023-12-07T14:19:43;34.83;;;19.75;;
7108;SDS011;29079;41.930;25.558;2023-12-07T14:22:36;33.53;;;20.73;;
7108;SDS011;29079;41.930;25.558;2023-12-07T14:25:26;40.10;;;20.20;;
7108;SDS011;29079;41.930;25.558;2023-12-07T14:28:15;30.40;;;17.27;;
7108;SDS011;29079;41.930;25.558;2023-12-07T14:31:04;28.85;;;14.95;;
7108;SDS011;29079;41.930;25.558;2023-12-07T14:33:54;28.50;;;15.63;;
7108;SDS011;29079;41.930;25.558;2023-12-07T14:36:42;52.42;;;17.23;;
7108;SDS011;29079;41.930;25.558;2023-12-07T14:39:32;28.92;;;15.85;;
7108;SDS011;29079;41.930;25.558;2023-12-07T14:42:22;31.42;;;16.17;;
7108;SDS011;29079;41.930;25.558;2023-12-07T14:45:10;33.55;;;16.75;;
7108;SDS011;29079;41.930;25.558;2023-12-07T14:48:01;31.85;;;17.90;;
7108;SDS011;29079;41.930;25.558;2023-12-07T14:50:50;27.95;;;14.30;;
7108;SDS011;29079;41.930;25.558;2023-12-07T14:53:39;29.27;;;15.20;;
7108;SDS011;29079;41.930;25.558;2023-12-07T14:56:29;26.98;;;15.52;;
7108;SDS011;29079;41.930;25.558;2023-12-07T14:59:18;33.33;;;16.75;;
7108;SDS011;29079;41.930;25.558;2023-12-07T15:02:07;36.78;;;18.20;;
7108;SDS011;29079;41.930;25.558;2023-12-07T15:04:57;24.25;;;13.57;;
7108;SDS011;29079;41.930;25.558;2023-12-07T15:07:45;19.48;;;11.18;;
7108;SDS011;29079;41.930;25.558;2023-12-07T15:10:34;23.73;;;8.70;;
7108;SDS011;29079;41.930;25.558;2023-12-07T15:13:22;13.18;;;7.18;;
7108;SDS011;29079;41.930;25.558;2023-12-07T15:16:12;17.33;;;9.80;;
7108;SDS011;29079;41.930;25.558;2023-12-07T15:19:00;19.38;;;11.90;;
7108;SDS011;29079;41.930;25.558;2023-12-07T15:21:49;18.67;;;11.68;;
7108;SDS011;29079;41.930;25.558;2023-12-07T15:24:38;26.05;;;11.82;;
7108;SDS011;29079;41.930;25.558;2023-12-07T15:27:26;25.15;;;11.82;;
7108;SDS011;29079;41.930;25.558;2023-12-07T15:30:15;23.75;;;12.20;;
7108;SDS011;29079;41.930;25.558;2023-12-07T15:33:13;23.45;;;12.27;;
7108;SDS011;29079;41.930;25.558;2023-12-07T15:36:02;28.50;;;14.90;;
7108;SDS011;29079;41.930;25.558;2023-12-07T15:38:53;24.38;;;12.23;;
7108;SDS011;29079;41.930;25.558;2023-12-07T15:41:43;25.42;;;12.68;;
7108;SDS011;29079;41.930;25.558;2023-12-07T15:44:31;24.85;;;12.32;;
7108;SDS011;29079;41.930;25.558;2023-12-07T15:47:19;21.27;;;12.73;;
7108;SDS011;29079;41.930;25.558;2023-12-07T15:50:09;43.97;;;24.02;;
7108;SDS011;29079;41.930;25.558;2023-12-07T15:52:58;49.03;;;27.15;;
7108;SDS011;29079;41.930;25.558;2023-12-07T15:55:49;43.67;;;22.23;;
7108;SDS011;29079;41.930;25.558;2023-12-07T15:58:37;21.02;;;11.45;;
7108;SDS011;29079;41.930;25.558;2023-12-07T16:01:28;18.92;;;10.05;;
7108;SDS011;29079;41.930;25.558;2023-12-07T16:04:19;15.57;;;9.15;;
7108;SDS011;29079;41.930;25.558;2023-12-07T16:07:20;19.83;;;10.82;;
7108;SDS011;29079;41.930;25.558;2023-12-07T16:10:13;18.30;;;10.43;;
7108;SDS011;29079;41.930;25.558;2023-12-07T16:13:05;13.77;;;8.85;;
7108;SDS011;29079;41.930;25.558;2023-12-07T16:15:59;13.95;;;7.50;;
7108;SDS011;29079;41.930;25.558;2023-12-07T16:18:48;10.55;;;7.40;;
7108;SDS011;29079;41.930;25.558;2023-12-07T16:21:37;9.30;;;6.10;;
7108;SDS011;29079;41.930;25.558;2023-12-07T16:24:26;7.07;;;4.53;;
7108;SDS011;29079;41.930;25.558;2023-12-07T16:27:17;22.77;;;12.38;;
7108;SDS011;29079;41.930;25.558;2023-12-07T16:30:06;79.68;;;31.75;;
7108;SDS011;29079;41.930;25.558;2023-12-07T16:32:58;20.75;;;10.77;;
7108;SDS011;29079;41.930;25.558;2023-12-07T16:35:47;34.63;;;15.82;;
7108;SDS011;29079;41.930;25.558;2023-12-07T16:38:38;17.88;;;8.13;;
7108;SDS011;29079;41.930;25.558;2023-12-07T16:41:29;8.40;;;5.40;;
7108;SDS011;29079;41.930;25.558;2023-12-07T16:44:30;18.27;;;9.27;;
7108;SDS011;29079;41.930;25.558;2023-12-07T16:47:19;8.82;;;5.82;;
7108;SDS011;29079;41.930;25.558;2023-12-07T16:50:15;8.68;;;5.55;;
7108;SDS011;29079;41.930;25.558;2023-12-07T16:53:05;15.57;;;7.80;;
7108;SDS011;29079;41.930;25.558;2023-12-07T16:55:54;16.02;;;8.60;;